Time;durP1;ratioP1;P1;durP2;ratioP2;P2;SDS_P1;SDS_P2;PMS_P1;PMS_P2;Temp;Humidity;BMP_temperature;BMP_pressure;BME280_temperature;BME280_humidity;BME280_pressure;Samples;Min_cycle;Max_cycle;Signal;HPM_P1;HPM_P2
2022/12/06 00:01:08;;;;;;;35.27;23.97;;;2.60;99.90;;;2.54;91.94;98152.81;5026389;28;20466;-73
2022/12/06 00:03:36;;;;;;;32.53;22.93;;;2.70;99.90;;;2.54;92.25;98152.81;5030895;28;20467;-74
2022/12/06 00:06:06;;;;;;;32.60;22.67;;;2.80;99.90;;;2.15;92.44;98097.28;5021438;28;20455;-75
2022/12/06 00:08:33;;;;;;;36.07;22.97;;;2.80;99.90;;;2.65;91.89;98153.50;5037849;28;20473;-76
2022/12/06 00:11:06;;;;;;;34.80;24.30;;;2.90;99.90;;;2.63;91.91;98144.81;5030629;28;20459;-69
2022/12/06 00:13:35;;;;;;;37.53;24.30;;;3.00;99.90;;;2.71;91.71;98152.88;5024116;28;20470;-70
2022/12/06 00:16:03;;;;;;;30.27;23.17;;;3.00;99.90;;;2.60;91.80;98137.16;5032215;28;20450;-74
2022/12/06 00:18:32;;;;;;;32.87;23.43;;;3.00;99.90;;;2.50;92.04;98142.63;5042204;28;20450;-68
2022/12/06 00:21:07;;;;;;;34.13;22.87;;;3.00;99.90;;;2.78;91.09;98139.72;5029127;28;20982;-69
2022/12/06 00:23:37;;;;;;;30.50;22.33;;;3.10;99.90;;;2.67;90.49;98124.84;5016575;28;20459;-68
2022/12/06 00:26:04;;;;;;;29.37;20.90;;;3.10;99.90;;;2.89;90.08;98150.09;5029555;28;21134;-73
2022/12/06 00:28:34;;;;;;;30.63;21.53;;;3.10;99.90;;;2.82;90.52;98125.03;5029886;28;20468;-77
2022/12/06 00:31:03;;;;;;;27.97;20.97;;;3.10;99.90;;;2.97;89.57;98135.94;5040794;28;20472;-69
2022/12/06 00:33:31;;;;;;;26.10;19.67;;;3.20;99.90;;;3.01;89.00;98141.75;5028062;28;20535;-72
2022/12/06 00:36:00;;;;;;;26.70;19.73;;;3.20;99.90;;;2.89;88.49;98138.56;5023853;28;21162;-70
2022/12/06 00:38:28;;;;;;;28.00;20.37;;;3.20;99.90;;;2.95;89.06;98137.91;5021932;28;20465;-68
2022/12/06 00:40:59;;;;;;;29.60;20.60;;;3.20;99.90;;;2.95;88.19;98151.25;5027220;28;20461;-73
2022/12/06 00:43:26;;;;;;;27.03;19.00;;;3.20;99.90;;;2.96;88.45;98144.94;5027015;28;20490;-67
2022/12/06 00:45:55;;;;;;;27.20;19.10;;;3.20;99.90;;;2.90;88.48;98145.56;5027415;28;20822;-73
2022/12/06 00:48:23;;;;;;;23.00;17.67;;;3.20;99.90;;;2.67;89.55;98143.53;5022830;28;20450;-71
2022/12/06 00:50:50;;;;;;;23.23;18.40;;;3.20;98.80;;;2.72;89.79;98138.53;5029079;28;20441;-72
2022/12/06 00:53:17;;;;;;;25.60;19.53;;;3.10;99.90;;;2.80;88.96;98129.72;5036574;28;20478;-73
2022/12/06 00:55:45;;;;;;;27.23;19.30;;;3.10;99.90;;;2.44;88.75;98060.59;5024000;28;20453;-76
2022/12/06 00:58:13;;;;;;;24.07;18.13;;;3.10;99.90;;;2.77;88.70;98120.19;5023954;28;20463;-71
2022/12/06 01:00:41;;;;;;;26.20;18.77;;;3.10;99.90;;;2.77;88.78;98125.53;5044145;28;20468;-72
2022/12/06 01:03:10;;;;;;;25.57;19.60;;;3.10;99.10;;;2.79;88.67;98123.53;5025917;28;20553;-68
2022/12/06 01:05:41;;;;;;;27.90;19.93;;;3.20;99.90;;;2.77;88.28;98114.03;5025844;28;20447;-77
2022/12/06 01:08:08;;;;;;;29.73;18.67;;;3.10;99.20;;;2.79;88.64;98118.19;5026916;28;20466;-72
2022/12/06 01:10:35;;;;;;;25.70;20.30;;;3.20;98.70;;;2.75;88.58;98119.53;5021712;28;20462;-67
2022/12/06 01:13:03;;;;;;;23.97;19.20;;;3.10;98.40;;;2.96;87.35;98124.41;5021749;28;20472;-68
2022/12/06 01:15:31;;;;;;;24.43;17.40;;;3.20;97.30;;;2.90;88.00;98126.91;5025467;28;20453;-70
2022/12/06 01:17:58;;;;;;;24.70;18.10;;;3.20;97.50;;;2.89;87.61;98127.91;5025712;28;20465;-69
2022/12/06 01:20:27;;;;;;;21.17;17.53;;;3.20;97.00;;;2.97;86.67;98117.25;5020374;28;21234;-68
2022/12/06 01:22:54;;;;;;;23.53;18.10;;;3.20;96.90;;;2.97;87.36;98120.75;5024411;28;20454;-67
2022/12/06 01:25:22;;;;;;;22.40;16.80;;;3.20;96.70;;;2.94;87.69;98120.22;5027819;28;20700;-68
2022/12/06 01:27:49;;;;;;;22.47;17.33;;;3.20;97.40;;;2.90;87.77;98119.75;5029027;28;20472;-70
2022/12/06 01:30:17;;;;;;;22.23;17.20;;;3.20;97.70;;;2.95;87.94;98113.88;5029475;28;20450;-76
2022/12/06 01:32:44;;;;;;;24.47;17.90;;;3.20;97.70;;;2.85;87.59;98115.88;5029089;28;21049;-71
2022/12/06 01:35:11;;;;;;;23.87;16.53;;;3.20;95.80;;;2.80;87.15;98108.34;5028233;28;20455;-67
2022/12/06 01:37:40;;;;;;;22.50;16.90;;;3.30;95.50;;;2.90;86.61;98119.75;5043029;28;20856;-81
2022/12/06 01:40:09;;;;;;;23.17;17.73;;;3.30;95.20;;;2.92;86.19;98111.53;5025087;28;20462;-73
2022/12/06 01:42:36;;;;;;;21.93;16.43;;;3.30;95.00;;;2.94;86.98;98113.06;5020321;28;21005;-75
2022/12/06 01:45:05;;;;;;;23.23;17.57;;;3.20;95.30;;;3.00;86.81;98100.91;5014066;28;20462;-74
2022/12/06 01:47:36;;;;;;;19.37;15.33;;;3.30;96.20;;;2.94;85.79;98098.88;5026008;28;20457;-74
2022/12/06 01:50:08;;;;;;;21.43;16.43;;;3.20;95.30;;;2.98;86.49;98105.56;5037097;28;20454;-70
2022/12/06 01:52:52;;;;;;;21.77;16.90;;;3.20;95.30;;;2.91;86.44;98107.22;5023935;28;20465;-70
2022/12/06 01:55:20;;;;;;;19.27;16.13;;;3.20;95.00;;;3.00;86.45;98098.22;5022329;28;20551;-71
2022/12/06 01:57:49;;;;;;;21.03;16.70;;;3.20;95.50;;;3.02;85.70;98104.22;5019408;28;20458;-69
2022/12/06 02:00:17;;;;;;;23.37;17.10;;;3.30;95.20;;;3.07;85.69;98093.88;5022883;28;20465;-70
2022/12/06 02:02:45;;;;;;;19.63;15.13;;;3.30;94.90;;;2.94;85.11;98098.88;5022614;28;21101;-70
2022/12/06 02:05:14;;;;;;;21.90;17.17;;;3.30;93.90;;;3.02;86.07;98096.22;5024758;28;20442;-70
2022/12/06 02:07:43;;;;;;;23.27;18.37;;;3.20;94.30;;;2.93;84.96;98075.84;5021908;28;20511;-72
2022/12/06 02:10:11;;;;;;;17.77;14.77;;;3.30;94.30;;;3.13;84.92;98097.72;5041623;28;20450;-70
2022/12/06 02:12:39;;;;;;;21.00;16.50;;;3.30;94.20;;;3.11;84.40;98081.91;5038067;28;20458;-70
2022/12/06 02:15:07;;;;;;;19.37;15.30;;;3.40;93.50;;;3.17;84.45;98084.88;5041882;28;20535;-70
2022/12/06 02:17:45;;;;;;;20.30;15.70;;;3.40;93.50;;;3.08;84.15;98084.88;5026300;28;20483;-69
2022/12/06 02:20:22;;;;;;;19.90;15.27;;;3.40;93.30;;;2.97;85.14;98083.38;5025180;28;20458;-74
2022/12/06 02:23:37;;;;;;;19.67;15.73;;;3.30;93.20;;;2.83;85.48;98090.19;5024657;28;20453;-69
2022/12/06 02:26:31;;;;;;;19.40;15.17;;;3.30;93.50;;;2.95;85.61;98073.84;4990921;28;21272;-72
2022/12/06 02:29:47;;;;;;;18.90;15.00;;;3.30;93.60;;;3.04;85.70;98072.88;5024096;28;20548;-70
2022/12/06 02:32:21;;;;;;;21.00;15.27;;;3.30;94.00;;;3.05;85.08;98066.53;5039815;28;20538;-77
2022/12/06 02:34:57;;;;;;;20.40;15.00;;;3.30;94.10;;;3.11;84.24;98073.03;5023345;28;20523;-68
2022/12/06 02:37:31;;;;;;;17.23;14.27;;;3.30;93.20;;;2.98;84.83;98057.53;5025598;28;20596;-69
2022/12/06 02:40:06;;;;;;;18.30;14.33;;;3.40;92.90;;;2.97;84.30;98066.53;5023711;28;20514;-68
2022/12/06 02:42:39;;;;;;;19.47;14.83;;;3.30;92.90;;;2.94;84.43;98062.34;5039983;28;20457;-75
2022/12/06 02:45:13;;;;;;;20.60;15.07;;;3.30;92.60;;;2.86;85.09;98070.34;5023639;28;20457;-72
2022/12/06 02:47:43;;;;;;;20.97;16.00;;;3.20;93.10;;;2.94;84.57;98058.81;5026176;28;20523;-68
2022/12/06 02:50:17;;;;;;;17.07;14.03;;;3.30;93.40;;;3.00;84.24;98054.66;5028761;28;20487;-76
2022/12/06 02:52:48;;;;;;;21.00;16.47;;;3.20;93.60;;;3.01;84.75;98064.34;5025174;28;20503;-75
2022/12/06 02:55:18;;;;;;;17.53;14.17;;;3.30;92.90;;;2.89;84.45;98040.66;5026890;28;20453;-72
2022/12/06 02:57:47;;;;;;;17.23;14.77;;;3.30;92.80;;;2.98;84.55;98052.19;5036393;28;20458;-77
2022/12/06 03:00:36;;;;;;;19.77;15.10;;;3.20;93.40;;;2.96;84.39;98064.88;5052182;28;20480;-74
2022/12/06 03:03:24;;;;;;;17.73;14.60;;;3.30;93.40;;;3.01;84.71;98056.34;5032026;28;20465;-69
2022/12/06 03:06:18;;;;;;;18.47;14.47;;;3.30;92.80;;;2.95;85.14;98047.16;5030076;28;20449;-68
2022/12/06 03:08:56;;;;;;;19.57;15.10;;;3.30;93.30;;;2.77;85.65;98055.31;5043208;28;20464;-69
2022/12/06 03:11:29;;;;;;;18.50;14.83;;;3.20;93.50;;;2.81;84.97;98056.66;5053730;28;20836;-69
2022/12/06 03:14:06;;;;;;;19.27;15.30;;;3.20;93.20;;;2.82;85.38;98053.84;5027723;28;20465;-69
2022/12/06 03:16:42;;;;;;;18.30;15.30;;;3.20;93.20;;;2.70;86.18;98055.16;5029435;28;20673;-71
2022/12/06 03:19:16;;;;;;;20.10;14.97;;;3.20;93.40;;;2.69;85.98;98053.47;5028029;28;20547;-73
2022/12/06 03:21:48;;;;;;;17.70;14.80;;;3.20;94.00;;;2.78;86.20;98046.31;5031449;28;20468;-70
2022/12/06 03:24:16;;;;;;;18.93;15.30;;;3.10;94.00;;;2.78;85.13;98046.31;5027623;28;20472;-70
2022/12/06 03:26:48;;;;;;;19.33;14.60;;;3.20;93.50;;;2.79;85.63;98048.81;5030382;28;20458;-70
2022/12/06 03:29:19;;;;;;;18.30;14.20;;;3.20;93.10;;;2.87;84.78;98050.66;5031516;28;20488;-74
2022/12/06 03:31:47;;;;;;;17.67;14.27;;;3.20;93.50;;;3.02;85.14;98042.84;5029576;28;20499;-73
2022/12/06 03:34:21;;;;;;;16.40;13.93;;;3.20;93.60;;;3.05;84.79;98034.47;5027304;28;20474;-70
2022/12/06 03:36:50;;;;;;;16.17;13.47;;;3.30;93.90;;;3.04;85.18;98040.81;5030426;28;20551;-72
2022/12/06 03:39:27;;;;;;;18.17;13.93;;;3.30;93.20;;;3.07;84.94;98040.50;5022238;28;20459;-71
2022/12/06 03:41:58;;;;;;;17.57;14.07;;;3.30;93.40;;;3.06;84.16;98033.47;5045720;28;21067;-70
2022/12/06 03:44:26;;;;;;;16.67;13.50;;;3.40;92.90;;;2.94;85.21;98041.00;5029589;28;20454;-73
2022/12/06 03:47:00;;;;;;;14.40;12.37;;;3.30;93.30;;;3.02;84.76;98034.81;5030058;28;20446;-73
2022/12/06 03:49:33;;;;;;;17.27;13.77;;;3.30;93.40;;;3.07;84.31;98035.16;5029410;28;21001;-69
2022/12/06 03:52:01;;;;;;;16.73;13.60;;;3.30;92.90;;;3.08;84.45;98038.66;5028903;28;20539;-74
2022/12/06 03:54:29;;;;;;;15.33;13.73;;;3.30;93.30;;;3.06;85.23;98043.34;5029860;28;20469;-74
2022/12/06 03:56:56;;;;;;;15.87;13.67;;;3.30;93.80;;;3.11;85.28;98036.50;5034879;28;20446;-73
2022/12/06 03:59:23;;;;;;;17.30;13.90;;;3.30;94.10;;;3.01;85.84;98040.31;5030784;28;20454;-74
2022/12/06 04:01:50;;;;;;;15.57;13.40;;;3.30;93.90;;;3.04;85.42;98024.00;5030672;28;20456;-68
2022/12/06 04:04:17;;;;;;;18.10;13.20;;;3.30;94.10;;;3.07;85.40;98029.81;5030131;28;21326;-70
2022/12/06 04:06:46;;;;;;;17.97;15.00;;;3.40;94.50;;;3.10;85.58;98028.66;5024743;28;20456;-74
2022/12/06 04:14:51;;;;;;;18.20;14.20;;;3.40;93.80;;;3.01;86.09;98029.63;5009752;28;20580;-69
2022/12/06 04:20:04;;;;;;;18.97;14.80;;;3.30;94.70;;;2.71;87.27;98026.63;5029477;28;21785;-75
2022/12/06 04:25:17;;;;;;;17.20;15.40;;;3.20;96.40;;;2.95;86.68;98015.97;5028925;28;20940;-75
2022/12/06 04:38:45;;;;;;;16.87;14.50;;;3.30;96.20;;;2.98;87.34;98004.94;5023683;28;20449;-70
2022/12/06 04:43:40;;;;;;;18.23;13.93;;;3.20;97.50;;;3.05;86.74;97989.09;5029971;28;20464;-69
2022/12/06 04:44:01;;;;;;;20.07;15.30;;;3.30;96.80;;;2.90;87.38;98007.63;5043896;28;21759;-69
2022/12/06 04:46:29;;;;;;;20.17;14.70;;;3.30;95.80;;;3.05;87.42;97998.97;5022835;28;20458;-72
2022/12/06 04:48:57;;;;;;;17.87;13.83;;;3.40;96.20;;;3.10;85.96;98005.44;5026495;28;20454;-69
2022/12/06 04:51:25;;;;;;;17.50;14.40;;;3.40;94.80;;;3.02;86.42;97993.94;5024980;28;20454;-70
2022/12/06 04:53:54;;;;;;;18.13;14.80;;;3.40;95.10;;;3.17;86.37;97996.78;5027089;28;20477;-68
2022/12/06 04:56:21;;;;;;;20.40;15.87;;;3.40;95.10;;;3.07;85.99;97971.06;5025259;28;20462;-75
2022/12/06 04:58:49;;;;;;;18.13;15.17;;;3.40;95.10;;;3.15;85.80;97996.13;5031640;28;20607;-68
2022/12/06 05:01:16;;;;;;;18.63;14.53;;;3.50;94.50;;;2.97;86.45;97973.94;5029776;28;20466;-72
2022/12/06 05:03:43;;;;;;;17.43;14.70;;;3.50;94.40;;;2.88;87.74;97987.44;5022009;28;20515;-73
2022/12/06 05:06:10;;;;;;;17.60;13.50;;;3.40;95.00;;;2.87;87.47;97986.59;5026006;28;20488;-73
2022/12/06 05:08:38;;;;;;;18.33;15.30;;;3.40;95.20;;;2.75;87.32;97943.41;5045875;28;20933;-69
2022/12/06 05:11:07;;;;;;;22.13;16.90;;;3.40;96.00;;;3.28;86.90;97991.09;5027601;28;20469;-72
2022/12/06 05:13:34;;;;;;;19.83;14.87;;;3.50;96.70;;;3.37;85.79;97981.22;5030208;28;20853;-69
2022/12/06 05:16:04;;;;;;;17.33;14.10;;;3.60;95.50;;;3.09;86.70;97987.75;5029016;28;20450;-76
2022/12/06 05:18:33;;;;;;;17.87;14.50;;;3.50;95.10;;;3.02;87.00;97986.78;5029133;28;20658;-68
2022/12/06 05:21:06;;;;;;;17.00;14.60;;;3.50;95.20;;;3.00;86.68;97964.75;5026709;28;20537;-77
2022/12/06 05:23:33;;;;;;;17.33;15.30;;;3.50;95.70;;;3.01;87.00;97977.09;5027260;28;20445;-73
2022/12/06 05:26:03;;;;;;;19.53;14.60;;;3.50;95.30;;;3.08;87.51;97977.25;5035137;28;20450;-67
2022/12/06 05:28:33;;;;;;;16.90;14.50;;;3.50;95.80;;;3.05;87.07;97977.59;5031303;28;20493;-68
2022/12/06 05:31:00;;;;;;;17.87;14.87;;;3.50;96.30;;;3.04;86.96;97987.44;5028096;28;20477;-75
2022/12/06 05:33:28;;;;;;;18.17;15.80;;;3.50;95.50;;;3.04;87.35;97975.94;5023273;28;20459;-68
2022/12/06 05:35:55;;;;;;;16.97;14.63;;;3.50;95.30;;;3.19;87.11;97984.94;5024475;28;20491;-69
2022/12/06 05:38:23;;;;;;;16.17;14.43;;;3.50;96.00;;;3.27;87.54;97970.75;5026684;28;20513;-76
2022/12/06 05:40:51;;;;;;;16.17;14.50;;;3.60;96.50;;;3.26;87.57;97974.38;5022774;28;20446;-69
2022/12/06 05:43:18;;;;;;;18.77;13.83;;;3.60;95.70;;;3.30;86.89;97978.41;5027808;28;20461;-68
2022/12/06 05:45:46;;;;;;;15.87;13.80;;;3.60;95.20;;;3.32;86.04;97968.38;5024822;28;20453;-70
2022/12/06 05:48:14;;;;;;;16.17;14.57;;;3.70;94.90;;;3.38;85.72;97967.69;5018084;28;20511;-70
2022/12/06 05:50:41;;;;;;;15.40;13.37;;;3.70;94.50;;;3.54;85.63;97968.66;5021030;28;21201;-69
2022/12/06 05:53:09;;;;;;;14.87;13.27;;;3.80;94.00;;;3.28;85.84;97961.72;5039195;28;20507;-68
2022/12/06 05:55:36;;;;;;;17.73;14.13;;;3.70;93.60;;;3.18;85.78;97966.41;5025075;28;20476;-68
2022/12/06 05:58:04;;;;;;;17.53;14.27;;;3.70;93.80;;;2.93;85.35;97900.53;5019572;28;20481;-77
2022/12/06 06:00:31;;;;;;;14.67;13.00;;;3.80;93.40;;;3.54;84.83;97965.97;5021000;28;20507;-65
2022/12/06 06:03:00;;;;;;;15.00;13.50;;;3.90;93.20;;;3.62;84.88;97975.81;5021381;28;20467;-65
2022/12/06 06:05:27;;;;;;;14.83;12.60;;;3.90;93.30;;;3.47;84.44;97954.31;5033555;28;20452;-67
2022/12/06 06:07:54;;;;;;;16.10;13.13;;;3.90;92.30;;;3.48;84.79;97974.69;5024160;28;20972;-70
2022/12/06 06:10:22;;;;;;;15.73;14.10;;;3.90;92.40;;;3.42;85.54;97976.19;5027055;28;20536;-68
2022/12/06 06:12:49;;;;;;;15.07;13.53;;;3.90;92.70;;;3.45;85.15;97967.03;5020300;28;20461;-67
2022/12/06 06:15:17;;;;;;;14.10;12.20;;;3.90;92.80;;;3.46;85.37;97964.16;5014986;28;20531;-68
2022/12/06 06:17:44;;;;;;;14.33;12.77;;;3.90;92.90;;;3.64;84.47;97966.63;5021079;28;20462;-68
2022/12/06 06:20:13;;;;;;;14.60;13.10;;;3.90;93.00;;;3.60;84.01;97965.31;5039907;28;20451;-68
2022/12/06 06:22:41;;;;;;;18.00;13.97;;;3.90;92.60;;;3.56;85.02;97969.31;5026565;28;20462;-73
2022/12/06 06:25:10;;;;;;;15.23;13.63;;;3.90;92.70;;;3.50;85.06;97965.50;5024040;28;20462;-68
2022/12/06 06:27:38;;;;;;;19.33;15.60;;;3.90;92.80;;;3.56;85.35;97971.97;5024581;28;20458;-71
2022/12/06 06:30:10;;;;;;;16.63;13.47;;;3.90;92.90;;;3.53;85.33;97975.84;5021624;28;20477;-69
2022/12/06 06:32:39;;;;;;;18.33;15.20;;;3.90;92.80;;;3.59;84.75;97978.81;5020868;28;20461;-70
2022/12/06 06:35:08;;;;;;;15.93;14.23;;;3.90;92.80;;;3.51;85.16;97977.84;5019867;28;20466;-73
2022/12/06 06:37:36;;;;;;;15.17;13.57;;;3.90;92.50;;;3.58;85.11;97978.00;5023820;28;20466;-73
2022/12/06 06:40:05;;;;;;;14.60;13.20;;;3.90;92.70;;;3.52;84.77;97978.69;5032357;28;20465;-74
2022/12/06 06:42:32;;;;;;;15.83;13.10;;;4.00;92.30;;;3.05;84.60;97898.34;5034108;28;20473;-68
2022/12/06 06:45:00;;;;;;;18.80;14.57;;;3.90;92.70;;;3.90;84.84;97980.72;5023268;28;20458;-69
2022/12/06 06:47:29;;;;;;;15.17;13.60;;;4.00;93.40;;;3.77;83.93;97978.59;5023112;28;20463;-68
2022/12/06 06:49:59;;;;;;;17.00;13.93;;;4.10;91.90;;;3.46;84.78;97982.03;5019877;28;20934;-69
2022/12/06 06:52:26;;;;;;;17.20;14.27;;;4.00;91.80;;;3.47;86.43;97978.38;5039550;28;20442;-68
2022/12/06 06:54:55;;;;;;;18.07;14.93;;;3.90;93.30;;;3.56;85.46;97990.69;5018763;28;20902;-73
2022/12/06 06:57:22;;;;;;;16.47;13.57;;;4.00;92.90;;;4.13;84.86;97986.13;5012618;28;21047;-67
2022/12/06 06:59:50;;;;;;;19.07;14.57;;;4.30;94.30;;;3.95;84.11;97973.03;5018729;28;20472;-68
2022/12/06 07:02:18;;;;;;;20.43;15.43;;;4.40;92.50;;;3.89;83.24;97979.91;5013207;28;20461;-75
2022/12/06 07:04:45;;;;;;;16.30;14.30;;;4.40;91.10;;;3.85;83.36;97972.41;5017425;28;20476;-71
2022/12/06 07:07:13;;;;;;;16.20;13.17;;;4.30;91.40;;;3.99;83.92;97992.22;5019965;28;20458;-69
2022/12/06 07:09:42;;;;;;;15.60;13.10;;;4.30;91.90;;;3.69;83.88;97985.63;5022192;28;20458;-71
2022/12/06 07:12:13;;;;;;;15.07;13.40;;;4.30;90.70;;;4.09;82.92;97983.00;5017555;28;20453;-70
2022/12/06 07:14:40;;;;;;;15.83;12.43;;;4.40;91.60;;;4.18;82.71;97967.75;5016792;28;20481;-72
2022/12/06 07:17:07;;;;;;;16.03;13.33;;;4.50;91.20;;;3.93;82.66;97981.22;5039552;28;20526;-71
2022/12/06 07:19:34;;;;;;;16.47;14.03;;;4.30;90.70;;;3.62;84.18;97984.66;5019665;28;20470;-71
2022/12/06 07:22:02;;;;;;;18.80;14.07;;;4.20;91.10;;;3.93;82.58;97986.56;5025165;28;20457;-69
2022/12/06 07:24:29;;;;;;;14.03;12.10;;;4.20;91.20;;;3.85;83.27;97980.41;5016126;28;20465;-71
2022/12/06 07:26:56;;;;;;;15.60;13.60;;;4.20;90.70;;;3.71;83.37;97976.59;5025646;28;20461;-69
2022/12/06 07:29:25;;;;;;;15.17;13.50;;;4.20;91.30;;;3.88;83.11;97983.59;5024895;28;20464;-80
2022/12/06 07:31:52;;;;;;;18.57;14.27;;;4.20;91.50;;;3.79;83.51;97979.25;5021697;28;20445;-69
2022/12/06 07:34:20;;;;;;;17.17;14.87;;;4.20;91.80;;;3.83;83.34;97980.56;5015514;28;20526;-68
2022/12/06 07:36:47;;;;;;;19.43;15.00;;;4.20;91.80;;;3.77;83.32;97978.59;5022162;28;20488;-69
2022/12/06 07:39:14;;;;;;;17.60;14.30;;;4.20;91.80;;;3.89;83.48;97977.22;5021802;28;20458;-68
2022/12/06 07:47:12;;;;;;;18.80;15.50;;;4.10;92.00;;;3.85;84.31;97975.88;5020631;28;20446;-69
2022/12/06 07:49:39;;;;;;;19.13;15.43;;;4.10;92.40;;;3.88;83.39;97983.59;5040444;28;20588;-71
2022/12/06 07:52:07;;;;;;;16.67;14.47;;;4.20;91.90;;;3.58;84.13;97967.31;5025496;28;20496;-70
2022/12/06 07:54:34;;;;;;;18.57;14.40;;;4.20;91.80;;;3.89;84.08;97982.56;5025285;28;20477;-72
2022/12/06 07:57:01;;;;;;;19.00;14.83;;;4.20;92.20;;;3.88;84.09;97986.25;5030268;28;20516;-70
2022/12/06 07:59:30;;;;;;;19.60;16.10;;;4.20;91.90;;;3.76;83.71;97974.28;5029407;28;21613;-68
2022/12/06 08:01:57;;;;;;;18.17;14.80;;;4.20;91.90;;;3.74;84.93;97979.78;5024839;28;20472;-69
2022/12/06 08:04:24;;;;;;;20.27;15.93;;;4.20;92.10;;;3.84;84.33;97976.91;5026082;28;20459;-73
2022/12/06 08:06:52;;;;;;;18.10;14.77;;;4.20;92.10;;;3.76;83.59;97958.22;5025896;28;20479;-77
2022/12/06 08:09:20;;;;;;;19.17;15.20;;;4.30;91.60;;;3.87;84.21;97981.91;5026595;28;20463;-75
2022/12/06 08:11:47;;;;;;;18.70;15.63;;;4.30;92.20;;;3.70;84.52;97970.44;5041572;28;20459;-71
2022/12/06 08:14:15;;;;;;;18.97;16.00;;;4.20;92.10;;;3.64;84.35;97945.25;5041487;28;20914;-72
2022/12/06 08:16:43;;;;;;;21.13;15.70;;;4.20;91.90;;;4.02;83.49;97973.13;5022775;28;20948;-71
2022/12/06 08:19:10;;;;;;;18.03;15.17;;;4.30;91.90;;;3.81;83.95;97971.91;5040434;28;20465;-70
2022/12/06 08:21:38;;;;;;;18.73;15.23;;;4.20;91.80;;;4.11;83.09;97972.09;5023038;28;20439;-71
2022/12/06 08:24:05;;;;;;;17.13;14.73;;;4.30;91.70;;;4.33;82.18;97967.00;5040935;28;20879;-72
2022/12/06 08:26:32;;;;;;;16.40;13.20;;;4.50;91.70;;;4.27;81.85;97968.53;5026206;28;20482;-72
2022/12/06 08:29:01;;;;;;;17.70;14.10;;;4.50;90.70;;;4.14;80.97;97953.03;5021930;28;20461;-72
2022/12/06 08:31:33;;;;;;;17.30;13.77;;;4.60;90.20;;;4.19;82.52;97972.06;5022644;28;20482;-70
2022/12/06 08:34:02;;;;;;;17.43;14.70;;;4.50;90.40;;;4.24;81.88;97982.22;5014448;28;20587;-66
2022/12/06 08:36:29;;;;;;;18.17;14.50;;;4.60;90.40;;;4.11;82.82;97978.31;5020510;28;20480;-70
2022/12/06 08:38:59;;;;;;;17.40;14.53;;;4.50;90.40;;;4.50;81.27;97995.31;5023056;28;20523;-70
2022/12/06 08:44:14;;;;;;;15.57;13.50;;;4.60;90.50;;;4.58;80.35;97980.19;5038371;28;20450;-68
2022/12/06 08:46:42;;;;;;;17.60;13.70;;;4.70;90.30;;;4.43;80.19;97964.91;5022630;28;20453;-68
2022/12/06 08:49:13;;;;;;;15.67;13.60;;;4.80;88.90;;;4.60;80.26;97973.66;5026550;28;20467;-65
2022/12/06 08:51:40;;;;;;;16.70;14.90;;;4.80;89.20;;;4.45;81.86;97978.94;5030637;28;20934;-67
2022/12/06 08:54:11;;;;;;;17.20;14.27;;;4.80;89.80;;;4.26;82.42;97982.91;5029208;28;20466;-67
2022/12/06 08:56:38;;;;;;;18.30;14.10;;;4.70;90.10;;;4.41;80.91;97982.97;5020599;28;20488;-67
2022/12/06 08:59:05;;;;;;;14.13;12.00;;;4.70;90.10;;;4.50;81.60;97992.63;5022342;28;20466;-68
2022/12/06 09:01:34;;;;;;;14.47;12.37;;;4.80;90.00;;;4.36;81.34;97985.34;5021348;28;20512;-67
2022/12/06 09:04:04;;;;;;;14.80;12.67;;;4.70;89.30;;;4.24;81.91;97982.22;5018481;28;20463;-68
2022/12/06 09:06:32;;;;;;;15.20;12.77;;;4.60;90.20;;;4.36;81.93;97978.16;5039427;28;20451;-71
2022/12/06 09:09:00;;;;;;;16.60;13.70;;;4.70;90.50;;;4.58;80.78;97989.06;5027631;28;20458;-71
2022/12/06 09:11:27;;;;;;;15.70;12.40;;;4.80;89.80;;;4.59;81.19;97984.53;5039249;28;20451;-75
2022/12/06 09:13:54;;;;;;;14.60;12.17;;;4.80;90.00;;;4.64;79.96;97982.97;5024690;28;20811;-74
2022/12/06 09:16:23;;;;;;;17.03;13.70;;;4.80;89.80;;;4.63;80.23;97985.84;5022261;28;20458;-71
2022/12/06 09:18:51;;;;;;;14.70;13.17;;;4.80;89.60;;;4.51;81.25;97991.63;5037348;28;20973;-72
2022/12/06 09:21:23;;;;;;;16.83;12.73;;;4.80;90.20;;;4.51;80.77;97988.94;5023204;28;20481;-72
2022/12/06 09:23:55;;;;;;;14.47;12.90;;;4.80;90.00;;;4.61;80.90;97983.34;5025946;28;20484;-72
2022/12/06 09:26:22;;;;;;;13.27;11.80;;;4.90;90.00;;;4.62;80.81;97985.00;5022935;28;20770;-75
2022/12/06 09:28:49;;;;;;;16.87;11.97;;;4.90;90.00;;;4.78;80.59;97984.06;5021834;28;20485;-69
2022/12/06 09:31:17;;;;;;;13.80;12.30;;;4.90;89.50;;;4.21;81.50;97924.59;5026344;28;20476;-74
2022/12/06 09:33:45;;;;;;;12.60;10.60;;;4.90;90.00;;;4.57;81.01;97975.84;5025412;28;20473;-74
2022/12/06 09:36:15;;;;;;;13.30;11.90;;;4.80;89.90;;;4.57;80.73;97970.50;5019561;28;20481;-73
2022/12/06 09:38:45;;;;;;;10.70;9.53;;;4.90;89.70;;;4.56;80.94;97984.88;5022184;28;20451;-74
2022/12/06 09:41:41;;;;;;;12.40;10.87;;;4.90;89.00;;;4.03;81.21;97916.84;5025632;28;20462;-71
2022/12/06 09:44:25;;;;;;;12.40;11.10;;;4.80;90.00;;;4.46;81.32;97975.25;5019430;28;20524;-74
2022/12/06 09:47:09;;;;;;;13.80;11.57;;;4.80;90.10;;;4.45;82.28;97981.59;5024374;28;20457;-73
2022/12/06 09:49:50;;;;;;;13.80;11.90;;;4.80;90.40;;;4.32;82.21;97979.50;5028200;28;20466;-74
2022/12/06 09:52:37;;;;;;;13.70;11.80;;;4.70;90.30;;;4.40;81.49;97978.63;5031627;28;20469;-70
2022/12/06 09:55:21;;;;;;;17.50;10.93;;;4.70;90.30;;;4.49;80.87;97979.41;5024322;28;20485;-69
2022/12/06 09:58:00;;;;;;;12.90;10.40;;;4.80;90.40;;;4.39;80.73;97976.97;5021082;28;20450;-71
2022/12/06 10:00:32;;;;;;;10.63;9.33;;;4.80;89.40;;;4.27;82.30;97978.38;5022599;28;20481;-69
2022/12/06 10:03:33;;;;;;;13.27;11.27;;;4.80;90.00;;;4.36;82.65;97980.81;5018166;28;20792;-72
2022/12/06 10:06:02;;;;;;;15.00;10.90;;;4.80;90.50;;;4.50;82.40;97981.06;5020442;28;20462;-72
2022/12/06 10:08:51;;;;;;;12.30;10.10;;;4.70;90.80;;;4.22;82.26;97984.25;5024902;28;20541;-71
2022/12/06 10:11:40;;;;;;;11.80;10.37;;;4.70;90.30;;;4.08;83.48;97961.75;5017245;28;20462;-71
2022/12/06 10:14:27;;;;;;;15.43;10.17;;;4.60;91.30;;;4.18;84.14;97961.53;5022204;28;20461;-72
2022/12/06 10:17:03;;;;;;;14.23;11.30;;;4.60;91.50;;;4.16;83.53;97964.38;5021037;28;20481;-71
2022/12/06 10:19:47;;;;;;;13.90;11.10;;;4.60;91.50;;;4.16;83.49;97944.84;5039442;28;20451;-71
2022/12/06 10:22:28;;;;;;;12.90;11.40;;;4.60;91.80;;;4.45;83.35;97960.19;5020323;28;20489;-74
2022/12/06 10:25:03;;;;;;;11.83;9.73;;;4.60;92.00;;;4.39;82.65;97953.72;5020356;28;20469;-71
2022/12/06 10:27:38;;;;;;;11.57;10.03;;;4.80;91.10;;;4.39;82.74;97963.59;5021173;28;20473;-71
2022/12/06 10:30:11;;;;;;;13.90;10.53;;;4.70;91.10;;;4.38;83.21;97960.06;5039012;28;20461;-71
2022/12/06 10:32:52;;;;;;;14.30;10.97;;;4.70;91.70;;;4.14;83.85;97934.31;5024598;28;20469;-73
2022/12/06 10:35:34;;;;;;;14.63;11.03;;;4.70;92.20;;;4.60;83.37;97964.78;5029475;28;21130;-72
2022/12/06 10:38:14;;;;;;;14.70;11.63;;;4.70;93.00;;;4.76;83.42;97970.00;5047412;28;20475;-71
2022/12/06 10:40:52;;;;;;;12.47;10.40;;;4.80;93.00;;;4.65;82.95;97962.41;5037977;28;20462;-71
2022/12/06 10:43:28;;;;;;;12.43;10.17;;;4.90;92.40;;;4.46;84.31;97958.38;5022350;28;20467;-71
2022/12/06 10:49:01;;;;;;;11.03;8.67;;;4.70;92.20;;;4.36;84.12;97958.59;5027375;28;20457;-80
2022/12/06 10:51:38;;;;;;;9.57;8.53;;;4.70;93.00;;;4.25;84.56;97952.63;5029915;28;20539;-75
2022/12/06 10:54:19;;;;;;;9.77;8.77;;;4.70;93.20;;;4.22;85.93;97958.34;5039882;28;20952;-75
2022/12/06 10:56:49;;;;;;;9.03;7.97;;;4.60;93.70;;;4.51;85.88;97966.69;5027695;28;20997;-78
2022/12/06 10:59:27;;;;;;;9.23;7.37;;;4.70;94.60;;;4.48;85.63;97964.38;5028659;28;20472;-74
2022/12/06 11:02:00;;;;;;;9.30;6.50;;;4.70;94.40;;;4.03;84.83;97953.44;5030012;28;20510;-75
2022/12/06 11:04:33;;;;;;;7.30;5.63;;;4.50;92.10;;;3.75;85.60;97919.16;5047083;28;20470;-78
2022/12/06 11:07:07;;;;;;;7.17;5.63;;;4.40;93.40;;;3.96;86.22;97943.44;5046964;28;20604;-75
2022/12/06 11:09:41;;;;;;;6.60;5.40;;;4.40;93.70;;;3.79;86.33;97948.03;5025862;28;20491;-77